Time;durP1;ratioP1;P1;durP2;ratioP2;P2;SDS_P1;SDS_P2;PMS_P1;PMS_P2;Temp;Humidity;BMP_temperature;BMP_pressure;BME280_temperature;BME280_humidity;BME280_pressure;Samples;Min_cycle;Max_cycle;Signal;HPM_P1;HPM_P2
2024/03/23 00:02:06;;;;;;;1.23;0.90;;;;;;;2.85;100.00;101384.00;5035046;28;20041;-75
2024/03/23 00:04:33;;;;;;;0.60;0.60;;;;;;;2.75;100.00;101385.59;5032016;28;20487;-75
2024/03/23 00:07:00;;;;;;;4.18;1.25;;;;;;;2.62;100.00;101380.34;5033522;28;20092;-75
2024/03/23 00:09:26;;;;;;;3.63;0.52;;;;;;;2.56;100.00;101373.63;5035289;28;20037;-74
2024/03/23 00:11:53;;;;;;;1.73;1.20;;;;;;;2.61;100.00;101370.66;5019476;28;20472;-75
2024/03/23 00:14:19;;;;;;;2.80;1.02;;;;;;;2.64;100.00;101375.75;5002970;28;20041;-74
2024/03/23 00:16:46;;;;;;;0.50;0.50;;;;;;;2.67;100.00;101369.38;5002949;28;20041;-74
2024/03/23 00:19:13;;;;;;;0.80;0.80;;;;;;;2.69;100.00;101364.81;5002911;28;20041;-74
2024/03/23 00:21:40;;;;;;;0.43;0.43;;;;;;;2.69;100.00;101354.19;5018777;28;20045;-74
2024/03/23 00:24:11;;;;;;;0.73;0.60;;;;;;;2.68;100.00;101352.50;5036427;28;20104;-74
2024/03/23 00:26:38;;;;;;;0.50;0.50;;;;;;;2.63;100.00;101352.81;5019535;28;20038;-74
2024/03/23 00:29:04;;;;;;;3.65;0.73;;;;;;;2.62;100.00;101346.66;5034805;28;20041;-74
2024/03/23 00:31:31;;;;;;;3.35;1.20;;;;;;;2.61;100.00;101344.94;5018883;28;20068;-74
2024/03/23 00:33:58;;;;;;;0.50;0.50;;;;;;;2.58;100.00;101339.03;5035418;28;20056;-75
2024/03/23 00:36:25;;;;;;;0.60;0.60;;;;;;;2.63;100.00;101335.09;5035226;28;20091;-75
2024/03/23 00:38:52;;;;;;;1.75;1.20;;;;;;;2.72;100.00;101336.22;5035048;28;20483;-75
2024/03/23 00:41:21;;;;;;;0.50;0.50;;;;;;;2.86;100.00;101337.91;5034708;28;20030;-75
2024/03/23 00:43:47;;;;;;;0.50;0.50;;;;;;;3.01;100.00;101347.38;5018783;28;20030;-75
2024/03/23 00:46:14;;;;;;;1.20;1.15;;;;;;;3.28;100.00;101357.81;5044392;28;20057;-74
2024/03/23 00:48:41;;;;;;;1.48;1.10;;;;;;;3.50;100.00;101357.03;5053760;28;20029;-75
2024/03/23 00:51:07;;;;;;;1.90;1.00;;;;;;;3.55;100.00;101355.81;5052546;28;20059;-74
2024/03/23 00:53:33;;;;;;;0.73;0.73;;;;;;;3.43;100.00;101362.91;5047940;28;20457;-74
2024/03/23 00:55:59;;;;;;;0.88;0.80;;;;;;;3.28;100.00;101359.59;5012014;28;20118;-74
2024/03/23 00:58:25;;;;;;;1.45;0.98;;;;;;;3.20;100.00;101346.03;5017113;28;20095;-74
2024/03/23 01:00:51;;;;;;;0.70;0.70;;;;;;;3.18;100.00;101343.50;5013310;28;20033;-74
2024/03/23 01:03:16;;;;;;;1.30;0.88;;;;;;;3.09;100.00;101349.47;5020185;28;20032;-74
2024/03/23 01:05:42;;;;;;;1.60;0.70;;;;;;;3.08;100.00;101339.81;5017447;28;20494;-74
2024/03/23 01:08:08;;;;;;;12.40;0.85;;;;;;;3.02;100.00;101342.94;5003709;28;20388;-74
2024/03/23 01:10:33;;;;;;;1.25;0.63;;;;;;;2.91;100.00;101335.75;5021314;28;20415;-74
2024/03/23 01:12:59;;;;;;;0.60;0.60;;;;;;;2.81;100.00;101326.75;5028873;28;20028;-74
2024/03/23 01:15:24;;;;;;;0.70;0.70;;;;;;;2.73;100.00;101321.16;5012967;28;21839;-74
2024/03/23 01:17:50;;;;;;;2.13;1.42;;;;;;;2.77;100.00;101301.38;5034177;28;20091;-74
2024/03/23 01:20:16;;;;;;;2.58;1.17;;;;;;;2.90;100.00;101307.47;5023135;28;20030;-74
2024/03/23 01:22:42;;;;;;;0.80;0.80;;;;;;;2.92;100.00;101308.22;4998056;28;20107;-75
2024/03/23 01:25:07;;;;;;;0.77;0.77;;;;;;;2.99;100.00;101306.81;5022692;28;20423;-75
2024/03/23 01:27:34;;;;;;;3.53;0.82;;;;;;;3.13;100.00;101304.94;5017476;28;20033;-75
2024/03/23 01:29:59;;;;;;;0.82;0.80;;;;;;;3.22;100.00;101301.59;5017378;28;20061;-75
2024/03/23 01:32:25;;;;;;;4.75;1.05;;;;;;;3.29;100.00;101313.47;5013595;28;20104;-75
2024/03/23 01:34:51;;;;;;;1.58;1.02;;;;;;;3.37;100.00;101316.38;5034930;28;20443;-75
2024/03/23 01:37:16;;;;;;;2.38;1.13;;;;;;;3.49;100.00;101325.22;5011177;28;20065;-75
2024/03/23 01:39:42;;;;;;;3.22;1.23;;;;;;;3.59;100.00;101304.13;5007566;28;20102;-75
2024/03/23 01:42:08;;;;;;;1.08;0.90;;;;;;;3.56;100.00;101293.72;5037405;28;20032;-75
2024/03/23 01:44:33;;;;;;;2.92;1.13;;;;;;;3.57;100.00;101295.41;5026666;28;20477;-75
2024/03/23 01:46:59;;;;;;;0.90;0.68;;;;;;;3.61;100.00;101294.22;5011038;28;20042;-75
2024/03/23 01:49:24;;;;;;;0.60;0.60;;;;;;;3.77;100.00;101292.06;5024255;28;20033;-76
2024/03/23 01:51:50;;;;;;;1.27;0.50;;;;;;;3.94;100.00;101286.31;5030121;28;20044;-75
2024/03/23 01:54:19;;;;;;;0.60;0.60;;;;;;;4.00;100.00;101271.66;5033659;28;20086;-76
2024/03/23 01:56:45;;;;;;;6.55;1.05;;;;;;;3.82;100.00;101273.94;5017203;28;20032;-75
2024/03/23 01:59:11;;;;;;;0.50;0.50;;;;;;;3.64;100.00;101270.88;5020240;28;20049;-75
2024/03/23 02:01:36;;;;;;;0.82;0.82;;;;;;;3.46;100.00;101265.16;5040904;28;20037;-75
2024/03/23 02:04:02;;;;;;;11.73;1.35;;;;;;;3.27;100.00;101257.75;5020546;28;20028;-75
2024/03/23 02:06:28;;;;;;;0.60;0.60;;;;;;;3.02;100.00;101253.44;5034457;28;20036;-75
2024/03/23 02:08:54;;;;;;;1.75;0.80;;;;;;;2.92;100.00;101252.44;5013967;28;20042;-75
2024/03/23 02:11:20;;;;;;;1.75;0.52;;;;;;;2.84;100.00;101249.50;5035129;28;20029;-75
2024/03/23 02:13:46;;;;;;;1.60;0.80;;;;;;;2.79;100.00;101252.50;5014404;28;20175;-75
2024/03/23 02:16:13;;;;;;;0.80;0.60;;;;;;;2.73;100.00;101254.78;5017237;28;20049;-75
2024/03/23 02:18:39;;;;;;;0.63;0.63;;;;;;;2.83;100.00;101248.66;5043545;28;20111;-76
2024/03/23 02:21:05;;;;;;;2.45;0.95;;;;;;;2.93;100.00;101248.81;5017938;28;20031;-76
2024/03/23 02:23:30;;;;;;;5.32;1.27;;;;;;;3.04;100.00;101246.22;5046659;28;20112;-75
2024/03/23 02:25:56;;;;;;;0.55;0.55;;;;;;;3.35;100.00;101259.81;5013588;28;20060;-75
2024/03/23 02:28:22;;;;;;;11.52;2.17;;;;;;;3.62;100.00;101240.06;5018186;28;20063;-75
2024/03/23 02:30:51;;;;;;;5.78;0.93;;;;;;;3.80;100.00;101238.63;5015060;28;20034;-75
2024/03/23 02:33:17;;;;;;;11.52;1.15;;;;;;;3.97;100.00;101256.78;5010550;28;20044;-75
2024/03/23 02:35:47;;;;;;;3.15;2.03;;;;;;;4.11;100.00;101247.69;5021226;28;20037;-75
2024/03/23 02:38:12;;;;;;;2.30;1.20;;;;;;;4.08;100.00;101237.31;5012852;28;20041;-75
2024/03/23 02:40:38;;;;;;;1.95;1.10;;;;;;;4.13;100.00;101234.28;5028150;28;20541;-75
2024/03/23 02:43:04;;;;;;;0.75;0.75;;;;;;;4.32;100.00;101226.50;5050230;28;20398;-75
2024/03/23 02:45:30;;;;;;;4.63;0.75;;;;;;;4.37;100.00;101229.66;5034389;28;20025;-75
2024/03/23 02:47:56;;;;;;;0.60;0.60;;;;;;;4.24;100.00;101220.13;5048214;28;20060;-76
2024/03/23 02:50:22;;;;;;;0.77;0.77;;;;;;;4.05;100.00;101207.41;5030042;28;20033;-75
2024/03/23 02:52:48;;;;;;;0.52;0.50;;;;;;;3.86;100.00;101214.19;5011765;28;20048;-75
2024/03/23 02:55:14;;;;;;;0.80;0.80;;;;;;;3.68;100.00;101208.53;5006268;28;20037;-75
2024/03/23 02:57:40;;;;;;;3.40;0.80;;;;;;;3.50;100.00;101200.16;5026299;28;20045;-75
2024/03/23 03:00:09;;;;;;;2.75;1.02;;;;;;;3.49;100.00;101194.97;5032128;28;20040;-75
2024/03/23 03:02:34;;;;;;;0.80;0.80;;;;;;;3.40;100.00;101187.72;5034786;28;20033;-75
2024/03/23 03:05:00;;;;;;;1.50;0.93;;;;;;;3.26;100.00;101179.00;5033257;28;20361;-75
2024/03/23 03:07:26;;;;;;;4.65;0.82;;;;;;;3.20;100.00;101170.63;5006529;28;20033;-76
2024/03/23 03:09:51;;;;;;;1.20;1.10;;;;;;;3.17;100.00;101170.88;5017491;28;20180;-75
2024/03/23 03:12:17;;;;;;;3.40;0.82;;;;;;;3.18;100.00;101176.09;5013676;28;20351;-75
2024/03/23 03:14:43;;;;;;;0.50;0.50;;;;;;;3.19;100.00;101172.44;4998834;28;20473;-75
2024/03/23 03:17:08;;;;;;;0.80;0.80;;;;;;;3.20;100.00;101155.56;5014652;28;20042;-75
2024/03/23 03:19:34;;;;;;;0.70;0.70;;;;;;;3.28;100.00;101152.28;5009144;28;20135;-76
2024/03/23 03:22:00;;;;;;;11.77;1.02;;;;;;;3.47;100.00;101141.94;5028724;28;20072;-75
2024/03/23 03:24:25;;;;;;;0.40;0.40;;;;;;;3.69;100.00;101137.56;5021191;28;20037;-75
2024/03/23 03:26:51;;;;;;;3.08;0.77;;;;;;;3.82;100.00;101130.31;5012422;28;20038;-75
2024/03/23 03:29:17;;;;;;;0.93;0.57;;;;;;;3.97;100.00;101133.56;5036521;28;20032;-75
2024/03/23 03:31:43;;;;;;;4.43;0.80;;;;;;;4.11;100.00;101141.25;4998338;28;20381;-75
2024/03/23 03:34:09;;;;;;;0.43;0.43;;;;;;;4.25;100.00;101173.88;5022507;28;20029;-75
2024/03/23 03:36:34;;;;;;;4.10;1.02;;;;;;;4.10;100.00;101198.13;5005189;28;20389;-75
2024/03/23 03:39:00;;;;;;;2.08;0.80;;;;;;;3.68;100.00;101189.06;5010865;28;20036;-75
2024/03/23 03:41:25;;;;;;;0.82;0.60;;;;;;;3.45;100.00;101157.16;5048993;28;20084;-75
2024/03/23 03:43:51;;;;;;;0.95;0.90;;;;;;;3.22;100.00;101153.59;5036899;28;20045;-75
2024/03/23 03:46:17;;;;;;;0.50;0.50;;;;;;;3.05;100.00;101159.38;5050305;28;20033;-75
2024/03/23 03:48:44;;;;;;;0.50;0.50;;;;;;;2.88;100.00;101160.66;5036584;28;20048;-75
2024/03/23 03:51:10;;;;;;;0.40;0.40;;;;;;;2.74;100.00;101169.66;5029076;28;20036;-75
2024/03/23 03:53:36;;;;;;;0.40;0.40;;;;;;;2.61;100.00;101161.75;5003770;28;20137;-75
2024/03/23 03:56:02;;;;;;;0.60;0.60;;;;;;;2.45;100.00;101153.25;5022006;28;20083;-74
2024/03/23 03:58:28;;;;;;;0.50;0.50;;;;;;;2.41;100.00;101151.81;5029245;28;20102;-76
2024/03/23 04:00:53;;;;;;;1.33;0.82;;;;;;;2.27;100.00;101139.53;5010388;28;20376;-75
2024/03/23 04:03:19;;;;;;;0.50;0.50;;;;;;;2.13;100.00;101137.91;4999897;28;20037;-75
2024/03/23 04:05:52;;;;;;;0.40;0.40;;;;;;;2.20;100.00;101133.00;5006429;28;20558;-76
2024/03/23 04:08:18;;;;;;;0.73;0.63;;;;;;;2.18;100.00;101122.50;5040574;28;20037;-75
2024/03/23 04:10:43;;;;;;;0.60;0.60;;;;;;;2.14;100.00;101113.09;5002688;28;20480;-76
2024/03/23 04:13:09;;;;;;;0.40;0.40;;;;;;;2.12;100.00;101111.50;5015815;28;20037;-75
2024/03/23 04:15:34;;;;;;;0.60;0.60;;;;;;;2.23;100.00;101106.25;5012201;28;20068;-75
2024/03/23 04:18:00;;;;;;;1.13;0.73;;;;;;;2.34;100.00;101098.31;5034377;28;20088;-75
2024/03/23 04:20:26;;;;;;;0.50;0.50;;;;;;;2.57;100.00;101093.13;5036721;28;20029;-75
2024/03/23 04:22:51;;;;;;;0.52;0.52;;;;;;;2.79;100.00;101109.09;5019217;28;20038;-75
2024/03/23 04:25:19;;;;;;;0.45;0.45;;;;;;;2.95;100.00;101113.22;5010031;28;20441;-75
2024/03/23 04:27:45;;;;;;;3.53;1.20;;;;;;;3.05;100.00;101112.41;5028839;28;20112;-75
2024/03/23 04:30:12;;;;;;;0.68;0.68;;;;;;;3.09;100.00;101113.00;5035876;28;20387;-75
2024/03/23 04:32:37;;;;;;;1.65;0.82;;;;;;;3.15;100.00;101101.91;5022244;28;20043;-75
2024/03/23 04:35:09;;;;;;;3.30;1.17;;;;;;;3.18;100.00;101096.38;5011346;28;20484;-75
2024/03/23 04:37:40;;;;;;;0.82;0.80;;;;;;;3.24;100.00;101084.41;5053815;28;20029;-76
2024/03/23 04:40:07;;;;;;;1.10;1.00;;;;;;;3.30;100.00;101082.09;5024652;28;20095;-75
2024/03/23 04:42:33;;;;;;;1.58;0.85;;;;;;;3.42;100.00;101096.25;5048231;28;20036;-75
2024/03/23 04:44:59;;;;;;;10.57;1.63;;;;;;;3.56;100.00;101086.31;5037194;28;20405;-75
2024/03/23 04:47:24;;;;;;;8.93;1.50;;;;;;;3.61;100.00;101073.50;5039791;28;20056;-74
2024/03/23 04:49:52;;;;;;;0.93;0.93;;;;;;;3.62;100.00;101070.72;5032202;28;20033;-75
2024/03/23 04:52:18;;;;;;;2.53;0.95;;;;;;;3.69;100.00;101079.91;5021401;28;20048;-75
2024/03/23 04:54:45;;;;;;;0.50;0.50;;;;;;;3.83;100.00;101101.88;5005912;28;20037;-75
2024/03/23 04:57:11;;;;;;;0.98;0.85;;;;;;;3.94;100.00;101094.75;5037928;28;20061;-75
2024/03/23 04:59:37;;;;;;;0.63;0.63;;;;;;;3.99;100.00;101077.53;5002951;28;20071;-76
2024/03/23 05:02:02;;;;;;;0.88;0.88;;;;;;;4.00;100.00;101068.59;5010757;28;20030;-75
2024/03/23 05:04:28;;;;;;;0.77;0.63;;;;;;;3.94;100.00;101076.13;5027432;28;20052;-75
2024/03/23 05:06:54;;;;;;;1.00;0.90;;;;;;;3.94;100.00;101084.09;5052352;28;20029;-75
2024/03/23 05:09:19;;;;;;;6.90;1.63;;;;;;;3.90;100.00;101084.47;5022573;28;20037;-75
2024/03/23 05:11:45;;;;;;;4.05;1.08;;;;;;;3.88;100.00;101068.59;5012460;28;20029;-75
2024/03/23 05:14:13;;;;;;;1.40;1.08;;;;;;;3.91;100.00;101057.72;5014674;28;20404;-75
2024/03/23 05:16:39;;;;;;;7.13;0.82;;;;;;;3.78;100.00;101054.38;5019591;28;20083;-75
2024/03/23 05:19:05;;;;;;;1.58;0.77;;;;;;;3.65;100.00;101043.91;5002132;28;20042;-75
2024/03/23 05:21:30;;;;;;;0.95;0.75;;;;;;;3.62;100.00;101045.94;5049902;28;20036;-75
2024/03/23 05:23:56;;;;;;;2.08;1.40;;;;;;;3.65;100.00;101029.72;5018601;28;20480;-75
2024/03/23 05:26:22;;;;;;;1.00;0.93;;;;;;;3.74;100.00;101047.63;5006927;28;20110;-75
2024/03/23 05:28:48;;;;;;;0.65;0.65;;;;;;;3.91;100.00;101078.16;5003974;28;20234;-75
2024/03/23 05:31:28;;;;;;;0.63;0.63;;;;;;;3.99;100.00;101069.56;5018327;28;20047;-75
2024/03/23 05:33:54;;;;;;;0.75;0.75;;;;;;;3.95;100.00;101064.50;5024014;28;20054;-75
2024/03/23 05:36:20;;;;;;;1.88;1.60;;;;;;;3.90;100.00;101072.00;5000748;28;20063;-75
2024/03/23 05:38:46;;;;;;;1.38;1.05;;;;;;;3.83;100.00;101075.28;5038665;28;20139;-75
2024/03/23 05:41:12;;;;;;;0.98;0.85;;;;;;;3.72;100.00;101070.81;5001056;28;20472;-75
2024/03/23 05:43:38;;;;;;;1.45;1.00;;;;;;;3.70;100.00;101091.38;5005275;28;20103;-74
2024/03/23 05:46:07;;;;;;;2.67;1.15;;;;;;;3.66;100.00;101103.25;5022730;28;20482;-75
2024/03/23 05:48:33;;;;;;;0.77;0.77;;;;;;;3.45;100.00;101079.22;5032568;28;20364;-75
2024/03/23 05:50:59;;;;;;;0.43;0.43;;;;;;;3.25;100.00;101059.50;5016155;28;20136;-75
2024/03/23 05:53:24;;;;;;;0.73;0.65;;;;;;;3.18;100.00;101060.97;5005320;28;20045;-75
2024/03/23 05:55:53;;;;;;;0.60;0.60;;;;;;;3.15;100.00;101051.44;5031024;28;20153;-75
2024/03/23 05:58:20;;;;;;;2.10;1.33;;;;;;;3.17;100.00;101044.16;5045918;28;20041;-75
2024/03/23 06:00:46;;;;;;;0.73;0.70;;;;;;;3.24;100.00;101049.84;5016197;28;20048;-75
2024/03/23 06:03:11;;;;;;;0.60;0.60;;;;;;;3.29;100.00;101045.88;5015169;28;20033;-75
2024/03/23 06:05:37;;;;;;;8.80;0.90;;;;;;;3.33;100.00;101042.97;5033046;28;20460;-77
2024/03/23 06:08:04;;;;;;;0.68;0.50;;;;;;;3.28;100.00;101038.88;5034418;28;20033;-75
2024/03/23 06:10:29;;;;;;;0.50;0.50;;;;;;;3.27;100.00;101028.34;5001101;28;20206;-75
2024/03/23 06:12:55;;;;;;;3.85;1.75;;;;;;;3.33;100.00;101038.47;5007504;28;20498;-75
2024/03/23 06:15:22;;;;;;;0.50;0.50;;;;;;;3.46;100.00;101043.66;4997443;28;20547;-75
2024/03/23 06:17:48;;;;;;;0.70;0.70;;;;;;;3.56;100.00;101065.06;5034866;28;20034;-75
2024/03/23 06:20:14;;;;;;;3.15;0.80;;;;;;;3.65;100.00;101074.94;5036208;28;20391;-75
2024/03/23 06:22:40;;;;;;;0.70;0.60;;;;;;;3.54;100.00;101057.19;5004613;28;20038;-75
2024/03/23 06:25:06;;;;;;;1.30;0.68;;;;;;;3.33;100.00;101053.59;5017559;28;20033;-75
2024/03/23 06:27:32;;;;;;;0.70;0.70;;;;;;;3.22;100.00;101052.63;5033750;28;20040;-75
2024/03/23 06:30:02;;;;;;;0.85;0.77;;;;;;;3.19;100.00;101052.03;5034761;28;20056;-75
2024/03/23 06:32:29;;;;;;;1.88;0.73;;;;;;;3.15;100.00;101053.22;5006767;28;20040;-75
2024/03/23 06:34:54;;;;;;;0.43;0.43;;;;;;;3.14;100.00;101038.25;5017028;28;20516;-75
2024/03/23 06:37:20;;;;;;;0.50;0.50;;;;;;;3.15;100.00;101039.94;5034896;28;20033;-75
2024/03/23 06:39:46;;;;;;;2.03;0.70;;;;;;;3.14;100.00;101036.44;5031358;28;20383;-75
2024/03/23 06:42:12;;;;;;;0.63;0.50;;;;;;;3.13;100.00;101032.09;5017846;28;20045;-76
2024/03/23 06:44:39;;;;;;;2.17;0.85;;;;;;;3.09;100.00;101026.16;5041486;28;20036;-75
2024/03/23 06:47:05;;;;;;;0.40;0.40;;;;;;;3.18;100.00;101029.94;5052629;28;20459;-75
2024/03/23 06:49:30;;;;;;;1.10;0.60;;;;;;;3.28;100.00;101030.03;4997354;28;20033;-75
2024/03/23 06:51:56;;;;;;;0.50;0.50;;;;;;;3.46;100.00;101025.91;5006287;28;20080;-75
2024/03/23 06:54:21;;;;;;;0.68;0.68;;;;;;;3.49;100.00;101028.34;5015688;28;20039;-76
2024/03/23 06:56:47;;;;;;;0.57;0.57;;;;;;;3.50;100.00;101027.34;5034404;28;20021;-75
2024/03/23 06:59:13;;;;;;;5.20;0.75;;;;;;;3.37;100.00;101015.19;5016662;28;20041;-75
2024/03/23 07:01:38;;;;;;;1.98;1.38;;;;;;;3.24;100.00;101018.81;5011624;28;20102;-75
2024/03/23 07:04:04;;;;;;;0.80;0.75;;;;;;;3.27;100.00;101031.00;5024729;28;20568;-75
2024/03/23 07:06:31;;;;;;;1.13;0.73;;;;;;;3.40;100.00;101034.38;5010486;28;20092;-75
2024/03/23 07:08:57;;;;;;;0.57;0.57;;;;;;;3.55;100.00;101044.75;5036832;28;20055;-75
2024/03/23 07:11:22;;;;;;;5.57;1.30;;;;;;;3.68;100.00;101043.66;5003434;28;20469;-75
2024/03/23 07:13:54;;;;;;;1.15;1.02;;;;;;;3.88;100.00;101042.00;5004278;28;20037;-75
2024/03/23 07:16:20;;;;;;;8.23;1.00;;;;;;;4.00;100.00;101036.69;5013832;28;20040;-75
2024/03/23 07:18:46;;;;;;;0.50;0.50;;;;;;;3.96;100.00;101034.25;5015891;28;20116;-75
2024/03/23 07:21:12;;;;;;;0.98;0.60;;;;;;;4.02;100.00;101034.72;5045123;28;20043;-75
2024/03/23 07:23:38;;;;;;;0.45;0.45;;;;;;;4.01;100.00;101019.72;5023616;28;20033;-75
2024/03/23 07:26:05;;;;;;;1.10;0.80;;;;;;;4.19;100.00;101031.50;5013994;28;20034;-75
2024/03/23 07:28:32;;;;;;;0.55;0.55;;;;;;;4.25;100.00;101041.63;5032336;28;20041;-75
2024/03/23 07:31:08;;;;;;;0.90;0.85;;;;;;;4.18;100.00;101038.66;5036507;28;20052;-78
2024/03/23 07:33:36;;;;;;;;;;;;;;;4.23;100.00;101038.25;5028057;28;20047;-76
2024/03/23 07:36:02;;;;;;;1.55;0.77;;;;;;;4.46;100.00;101039.00;5067629;28;19955;-75
2024/03/23 07:38:29;;;;;;;1.08;1.02;;;;;;;5.02;100.00;101027.97;5037083;28;20037;-75
2024/03/23 07:41:11;;;;;;;1.88;0.70;;;;;;;6.08;100.00;101042.59;5036388;28;20052;-75
2024/03/23 07:43:38;;;;;;;0.50;0.50;;;;;;;5.44;100.00;101056.34;5040383;28;20041;-75
2024/03/23 07:46:04;;;;;;;3.28;0.70;;;;;;;4.94;100.00;101051.75;5023037;28;20041;-75
2024/03/23 07:48:30;;;;;;;1.55;0.65;;;;;;;4.55;100.00;101043.56;5002254;28;20030;-74
2024/03/23 07:50:57;;;;;;;1.92;1.20;;;;;;;4.30;100.00;101054.56;5015915;28;20030;-75
2024/03/23 07:53:22;;;;;;;0.45;0.45;;;;;;;4.48;100.00;101053.03;5034160;28;20032;-74
2024/03/23 07:55:59;;;;;;;3.35;1.25;;;;;;;6.13;100.00;101059.03;5022914;28;20464;-75
2024/03/23 07:58:25;;;;;;;0.80;0.80;;;;;;;7.04;100.00;101048.81;5009308;28;20137;-75
2024/03/23 08:00:55;;;;;;;1.00;0.88;;;;;;;7.41;100.00;101033.72;5029597;28;20494;-76
2024/03/23 08:03:20;;;;;;;1.30;1.20;;;;;;;7.83;100.00;101044.78;5009779;28;20037;-76
2024/03/23 08:05:46;;;;;;;6.13;0.95;;;;;;;8.43;100.00;101052.22;5046617;28;20392;-76
2024/03/23 08:08:12;;;;;;;0.80;0.80;;;;;;;8.59;100.00;101032.75;5037061;28;20029;-76
2024/03/23 08:10:50;;;;;;;5.78;1.23;;;;;;;9.59;100.00;101033.97;5031428;28;20095;-76
2024/03/23 08:13:16;;;;;;;0.55;0.52;;;;;;;8.68;100.00;101033.63;5036252;28;20465;-76
2024/03/23 08:15:42;;;;;;;1.83;1.13;;;;;;;7.35;100.00;101034.31;5002651;28;20095;-76
2024/03/23 08:18:07;;;;;;;0.63;0.63;;;;;;;6.49;100.00;101024.59;5026406;28;20068;-76
2024/03/23 08:20:33;;;;;;;2.83;1.08;;;;;;;5.85;100.00;101033.16;5042759;28;20072;-76
2024/03/23 08:22:59;;;;;;;1.25;0.80;;;;;;;5.47;100.00;101058.72;5019668;28;20077;-76
2024/03/23 08:25:24;;;;;;;0.90;0.90;;;;;;;5.46;100.00;101054.38;5019619;28;20078;-75
2024/03/23 08:27:50;;;;;;;3.67;1.20;;;;;;;5.38;100.00;101041.72;5038061;28;20037;-75
2024/03/23 08:30:16;;;;;;;4.57;0.70;;;;;;;5.28;100.00;101043.50;5045345;28;20042;-75
2024/03/23 08:32:42;;;;;;;0.88;0.88;;;;;;;6.33;100.00;101049.22;5007430;28;20037;-76
2024/03/23 08:35:08;;;;;;;1.88;0.82;;;;;;;8.03;100.00;101047.31;5035182;28;20435;-75
2024/03/23 08:37:34;;;;;;;2.67;0.93;;;;;;;9.12;100.00;101047.84;5036404;28;20115;-76
2024/03/23 08:40:02;;;;;;;1.25;1.10;;;;;;;10.20;100.00;101042.66;5031695;28;20112;-76
2024/03/23 08:42:27;;;;;;;1.45;1.13;;;;;;;10.89;100.00;101059.31;5011014;28;20077;-77
2024/03/23 08:44:53;;;;;;;1.95;0.85;;;;;;;8.50;100.00;101071.22;5023509;28;20065;-76
2024/03/23 08:47:19;;;;;;;0.60;0.60;;;;;;;7.02;100.00;101055.28;5015302;28;20038;-76
2024/03/23 08:49:44;;;;;;;2.97;0.93;;;;;;;8.56;100.00;101070.59;5036693;28;20030;-76
2024/03/23 08:52:10;;;;;;;1.63;0.90;;;;;;;9.76;100.00;101069.75;5006013;28;20034;-76
2024/03/23 08:54:35;;;;;;;0.80;0.80;;;;;;;10.37;100.00;101069.56;5013077;28;20036;-76
2024/03/23 08:57:01;;;;;;;0.88;0.77;;;;;;;11.21;100.00;101074.53;5011773;28;20037;-76
2024/03/23 08:59:27;;;;;;;2.55;0.90;;;;;;;10.12;100.00;101062.28;5018810;28;20041;-76
2024/03/23 09:01:53;;;;;;;2.25;0.80;;;;;;;8.91;100.00;101060.78;5045547;28;20025;-77
2024/03/23 09:04:18;;;;;;;0.95;0.90;;;;;;;7.91;100.00;101068.09;5008055;28;20044;-76
2024/03/23 09:06:44;;;;;;;2.05;0.80;;;;;;;7.18;100.00;101076.06;5019164;28;20084;-76
2024/03/23 09:09:10;;;;;;;1.40;1.00;;;;;;;6.76;100.00;101073.78;5054044;28;20035;-76
2024/03/23 09:11:35;;;;;;;4.72;1.27;;;;;;;6.66;100.00;101075.59;5054438;28;20029;-76
2024/03/23 09:14:01;;;;;;;2.80;1.05;;;;;;;6.75;100.00;101066.75;5037927;28;20060;-76
2024/03/23 09:16:26;;;;;;;1.92;1.75;;;;;;;6.70;100.00;101074.34;5037874;28;20037;-76
2024/03/23 09:18:52;;;;;;;3.55;0.63;;;;;;;6.18;100.00;101079.97;5037880;28;20036;-76
2024/03/23 09:21:18;;;;;;;7.38;0.90;;;;;;;5.87;100.00;101081.88;5021102;28;20033;-76
2024/03/23 09:23:44;;;;;;;0.90;0.85;;;;;;;6.05;100.00;101077.56;5037327;28;20039;-75
2024/03/23 09:26:10;;;;;;;3.92;1.00;;;;;;;5.65;100.00;101027.75;5021220;28;20068;-75
2024/03/23 09:28:36;;;;;;;2.35;1.02;;;;;;;5.32;100.00;101081.41;5021043;28;20053;-75
2024/03/23 09:31:05;;;;;;;2.45;1.38;;;;;;;5.20;100.00;101056.66;5021183;28;20029;-75
2024/03/23 09:33:31;;;;;;;3.15;1.73;;;;;;;7.65;100.00;101073.34;5037163;28;20033;-75
2024/03/23 09:35:57;;;;;;;0.93;0.90;;;;;;;9.71;100.00;101073.94;5020765;28;20095;-76
2024/03/23 09:38:23;;;;;;;5.25;1.35;;;;;;;9.55;100.00;101059.47;5021320;28;20037;-76
2024/03/23 09:40:53;;;;;;;2.03;1.23;;;;;;;10.34;100.00;101065.38;5036463;28;20037;-76
2024/03/23 09:43:19;;;;;;;0.70;0.70;;;;;;;11.54;100.00;101063.69;5037274;28;20078;-76
2024/03/23 09:45:45;;;;;;;5.40;0.85;;;;;;;11.17;100.00;101045.47;5053513;28;20025;-76
2024/03/23 09:48:11;;;;;;;1.70;1.13;;;;;;;9.01;100.00;101050.78;5052162;28;20439;-76
2024/03/23 09:50:40;;;;;;;4.35;1.05;;;;;;;9.63;100.00;101055.94;5012243;28;20071;-76
2024/03/23 09:53:13;;;;;;;1.02;0.93;;;;;;;10.59;100.00;101036.66;5014319;28;20037;-76
2024/03/23 09:55:41;;;;;;;2.05;0.90;;;;;;;11.43;100.00;101045.19;5022903;28;20040;-76
2024/03/23 09:58:08;;;;;;;0.88;0.88;;;;;;;11.99;100.00;101054.06;5033584;28;20037;-76
2024/03/23 10:00:34;;;;;;;3.40;1.40;;;;;;;12.02;100.00;101050.16;5032253;28;20091;-77
2024/03/23 10:03:04;;;;;;;0.85;0.80;;;;;;;11.82;100.00;101061.34;5036767;28;20025;-76
2024/03/23 10:05:36;;;;;;;2.35;1.00;;;;;;;12.06;100.00;101065.78;5053437;28;20052;-77
2024/03/23 10:08:14;;;;;;;1.00;0.77;;;;;;;12.29;100.00;101073.06;5021415;28;20029;-76
2024/03/23 10:10:40;;;;;;;1.13;1.02;;;;;;;12.39;100.00;101064.75;5053174;28;20031;-76
2024/03/23 10:13:06;;;;;;;1.05;0.90;;;;;;;12.84;100.00;101081.91;5015129;28;20029;-77
2024/03/23 10:15:35;;;;;;;2.90;1.10;;;;;;;13.19;100.00;101053.34;5046871;28;20029;-74
2024/03/23 10:18:15;;;;;;;6.82;1.20;;;;;;;11.04;100.00;101089.06;5047320;28;20061;-76
2024/03/23 10:20:41;;;;;;;4.03;1.45;;;;;;;12.29;100.00;101081.97;5016785;28;20055;-73
2024/03/23 10:23:16;;;;;;;6.95;2.25;;;;;;;13.42;100.00;101080.31;5043026;28;20467;-74
2024/03/23 10:25:41;;;;;;;3.00;1.42;;;;;;;12.46;100.00;101085.41;5014607;28;20029;-76
2024/03/23 10:28:09;;;;;;;3.78;1.20;;;;;;;11.49;100.00;101097.53;5020643;28;20503;-76
2024/03/23 10:30:35;;;;;;;7.28;2.35;;;;;;;11.83;100.00;101092.69;5017078;28;20049;-76
2024/03/23 10:33:08;;;;;;;4.18;1.88;;;;;;;12.93;100.00;101080.78;5037000;28;20139;-76
2024/03/23 10:35:35;;;;;;;2.80;1.35;;;;;;;10.95;100.00;101088.22;5016292;28;20030;-76
2024/03/23 10:38:04;;;;;;;3.78;1.38;;;;;;;9.37;100.00;101078.34;5016234;28;20037;-77
2024/03/23 10:40:31;;;;;;;5.30;1.45;;;;;;;10.32;100.00;101103.19;5016659;28;20042;-76
2024/03/23 10:42:58;;;;;;;3.28;1.40;;;;;;;11.64;100.00;101091.25;5016520;28;20091;-76
2024/03/23 10:45:24;;;;;;;4.57;1.40;;;;;;;12.37;100.00;101113.44;5000374;28;20038;-76
2024/03/23 10:47:52;;;;;;;5.15;1.10;;;;;;;12.21;100.00;101111.69;5032289;28;20100;-74
2024/03/23 10:50:18;;;;;;;2.50;0.90;;;;;;;11.10;100.00;101111.75;5000391;28;20037;-76
2024/03/23 10:52:47;;;;;;;7.22;1.52;;;;;;;11.41;100.00;101096.53;5032641;28;20053;-74
2024/03/23 10:55:14;;;;;;;2.35;1.35;;;;;;;11.63;100.00;101094.94;5032346;28;20044;-76
2024/03/23 10:57:51;;;;;;;3.90;1.67;;;;;;;11.76;100.00;101105.16;5032617;28;20480;-74
2024/03/23 11:00:17;;;;;;;4.18;1.42;;;;;;;11.76;100.00;101115.09;5000876;28;20071;-73
2024/03/23 11:02:43;;;;;;;3.42;1.20;;;;;;;11.99;100.00;101109.81;5033124;28;20037;-73
2024/03/23 11:05:28;;;;;;;4.72;1.35;;;;;;;12.29;100.00;101114.34;4999900;28;20507;-73
2024/03/23 11:07:54;;;;;;;6.43;1.40;;;;;;;12.27;100.00;101093.97;5016225;28;20059;-76
2024/03/23 11:10:37;;;;;;;5.70;1.88;;;;;;;12.67;100.00;101109.00;5034678;28;20037;-75
2024/03/23 11:13:22;;;;;;;4.55;1.73;;;;;;;13.30;100.00;101092.59;5033506;28;20579;-75
2024/03/23 11:15:48;;;;;;;2.38;1.20;;;;;;;13.28;100.00;101105.44;5015814;28;20041;-73
2024/03/23 11:18:20;;;;;;;6.32;1.67;;;;;;;11.94;96.74;101096.88;4999229;28;20060;-75
2024/03/23 11:20:46;;;;;;;5.95;2.05;;;;;;;12.79;100.00;101103.19;5031769;28;20045;-75
2024/03/23 11:23:32;;;;;;;4.95;1.55;;;;;;;10.59;100.00;101089.59;5032804;28;20037;-75